createdAt,value
2023-02-11T00:03:31.314Z,101924.73
2023-02-11T00:07:20.572Z,101928.30
2023-02-11T00:11:09.842Z,101921.75
2023-02-11T00:15:11.104Z,101918.83
2023-02-11T00:19:02.003Z,101917.93
2023-02-11T00:22:52.110Z,101915.53
2023-02-11T00:26:56.731Z,101912.27
2023-02-11T00:30:46.794Z,101905.72
2023-02-11T00:34:36.924Z,101912.73
2023-02-11T00:38:19.795Z,101916.15
2023-02-11T00:42:09.001Z,101917.69
2023-02-11T00:45:44.071Z,101911.35
2023-02-11T00:49:34.137Z,101909.42
2023-02-11T00:53:06.440Z,101909.92
2023-02-11T00:57:00.556Z,101907.31
2023-02-11T01:05:22.093Z,101904.87
2023-02-11T01:09:11.655Z,101898.48
2023-02-11T01:13:01.066Z,101898.42
2023-02-11T01:16:50.339Z,101901.85
2023-02-11T01:20:39.584Z,101898.43
2023-02-11T01:29:24.909Z,101898.54
2023-02-11T01:33:14.818Z,101900.58
2023-02-11T01:51:10.750Z,101900.54
2023-02-11T01:54:58.688Z,101898.00
2023-02-11T01:58:47.963Z,101898.70
2023-02-11T02:07:18.525Z,101888.83
2023-02-11T02:11:16.954Z,101888.79
2023-02-11T02:15:06.341Z,101884.26
2023-02-11T02:23:51.443Z,101871.98
2023-02-11T02:27:46.466Z,101868.48
2023-02-11T02:55:38.336Z,101858.85
2023-02-11T02:59:36.163Z,101862.88
2023-02-11T03:03:25.424Z,101867.11
2023-02-11T03:26:02.034Z,101857.45
2023-02-11T03:29:59.790Z,101852.68
2023-02-11T03:43:28.047Z,101838.76
2023-02-11T03:47:18.239Z,101827.42
2023-02-11T03:51:10.788Z,101828.27
2023-02-11T03:53:27.528Z,101849.09
2023-02-11T03:55:01.133Z,101827.56
2023-02-11T03:58:51.110Z,101824.37
2023-02-11T04:15:53.417Z,101795.84
2023-02-11T04:19:50.180Z,101794.52
2023-02-11T04:23:39.401Z,101798.30
2023-02-11T04:36:58.764Z,101797.89
2023-02-11T04:40:46.987Z,101794.94
2023-02-11T04:49:17.744Z,101780.84
2023-02-11T05:29:32.717Z,101741.20
2023-02-11T05:33:21.644Z,101748.46
2023-02-11T05:37:09.606Z,101749.58
2023-02-11T05:40:58.976Z,101750.89
2023-02-11T05:44:50.635Z,101743.75
2023-02-11T05:48:40.911Z,101740.69
2023-02-11T05:52:30.311Z,101738.61
2023-02-11T05:56:19.759Z,101744.59
2023-02-11T06:00:09.133Z,101739.29
2023-02-11T06:03:41.630Z,101733.79
2023-02-11T06:07:31.194Z,101719.56
2023-02-11T06:11:25.406Z,101719.64
2023-02-11T06:15:16.082Z,101710.43
2023-02-11T06:19:29.336Z,101691.11
2023-02-11T06:23:22.229Z,101685.15
2023-02-11T06:27:16.588Z,101686.73
2023-02-11T06:31:05.943Z,101679.73
2023-02-11T06:34:55.184Z,101684.23
2023-02-11T06:43:26.351Z,101674.95
2023-02-11T06:47:15.562Z,101672.45
2023-02-11T06:56:10.931Z,101661.08
2023-02-11T07:00:00.584Z,101647.87
2023-02-11T07:08:08.786Z,101628.50
2023-02-11T07:12:06.215Z,101624.91
2023-02-11T07:15:55.661Z,101624.08
2023-02-11T07:19:47.803Z,101618.85
2023-02-11T07:23:37.127Z,101617.25
2023-02-11T07:27:50.476Z,101614.30
2023-02-11T07:31:39.002Z,101620.20
2023-02-11T07:35:37.504Z,101616.48
2023-02-11T07:39:41.814Z,101612.20
2023-02-11T07:43:32.710Z,101618.89
2023-02-11T07:47:21.011Z,101610.98
2023-02-11T07:51:12.997Z,101610.95
2023-02-11T07:55:04.799Z,101613.52
2023-02-11T07:58:55.137Z,101606.36
2023-02-11T08:02:44.553Z,101593.55
2023-02-11T08:06:40.389Z,101590.31
2023-02-11T08:10:20.553Z,101578.83
2023-02-11T08:14:10.038Z,101572.65
2023-02-11T08:17:59.491Z,101563.67
2023-02-11T08:21:54.773Z,101559.23
2023-02-11T08:25:46.082Z,101562.21
2023-02-11T08:29:29.453Z,101553.67
2023-02-11T08:33:23.253Z,101543.39
2023-02-11T08:37:15.651Z,101537.77
2023-02-11T08:41:13.762Z,101529.54
2023-02-11T08:45:06.426Z,101537.79
2023-02-11T08:48:59.690Z,101527.85
2023-02-11T08:52:50.602Z,101527.17
2023-02-11T08:56:39.848Z,101526.14
2023-02-11T09:00:41.473Z,101517.21
2023-02-11T09:04:31.631Z,101516.71
2023-02-11T09:09:19.984Z,101513.29
2023-02-11T09:12:42.326Z,101506.26
2023-02-11T09:16:32.792Z,101502.86
2023-02-11T09:20:26.699Z,101493.78
2023-02-11T09:24:16.381Z,101484.54
2023-02-11T09:28:05.973Z,101481.11
2023-02-11T09:31:56.202Z,101470.14
2023-02-11T09:35:45.775Z,101459.30
2023-02-11T09:39:49.948Z,101448.98
2023-02-11T09:43:43.364Z,101438.33
2023-02-11T09:47:35.557Z,101438.85
2023-02-11T09:51:25.082Z,101429.59
2023-02-11T09:55:18.591Z,101430.46
2023-02-11T09:59:12.855Z,101426.17
2023-02-11T10:03:05.587Z,101419.65
2023-02-11T10:06:58.143Z,101405.92
2023-02-11T10:10:43.574Z,101397.88
2023-02-11T10:14:47.552Z,101384.50
2023-02-11T10:18:58.765Z,101380.73
2023-02-11T10:22:53.133Z,101373.01
2023-02-11T10:26:43.201Z,101366.67
2023-02-11T10:30:27.612Z,101356.67
2023-02-11T10:33:54.783Z,101351.52
2023-02-11T10:37:44.689Z,101343.95
2023-02-11T10:55:38.440Z,101324.55
2023-02-11T11:04:25.513Z,101302.73
2023-02-11T11:08:21.984Z,101295.48
2023-02-11T11:11:45.044Z,101287.77
2023-02-11T11:19:47.066Z,101269.38
2023-02-11T11:28:17.485Z,101248.56
2023-02-11T11:32:16.322Z,101231.02
2023-02-11T11:40:22.617Z,101207.43
2023-02-11T11:44:14.804Z,101197.27
2023-02-11T12:02:38.716Z,101167.48
2023-02-11T12:06:38.978Z,101159.05
2023-02-11T12:10:39.542Z,101154.58
2023-02-11T12:14:43.286Z,101148.21
2023-02-11T12:18:39.945Z,101137.54
2023-02-11T12:22:33.366Z,101121.52
2023-02-11T12:26:31.712Z,101106.38
2023-02-11T12:30:24.154Z,101101.89
2023-02-11T12:34:19.093Z,101092.74
2023-02-11T12:38:11.309Z,101086.73
2023-02-11T12:42:14.188Z,101078.98
2023-02-11T12:46:15.680Z,101065.20
2023-02-11T12:50:23.375Z,101063.98
2023-02-11T12:54:13.382Z,101072.05
2023-02-11T13:26:15.170Z,101013.40
2023-02-11T13:30:12.053Z,101001.70
2023-02-11T13:34:11.550Z,100994.45
2023-02-11T13:37:50.782Z,100994.11
2023-02-11T13:46:26.347Z,100961.65
2023-02-11T13:50:18.938Z,100946.83
2023-02-11T13:54:08.503Z,100940.09
2023-02-11T13:57:36.272Z,100932.16
2023-02-11T14:01:34.980Z,100937.70
2023-02-11T14:14:46.241Z,100934.05
2023-02-11T14:18:35.596Z,100930.46
2023-02-11T14:22:24.961Z,100926.17
2023-02-11T14:26:19.591Z,100929.30
2023-02-11T14:30:19.652Z,100926.86
2023-02-11T14:34:30.910Z,100917.56
2023-02-11T14:47:30.553Z,100898.71
2023-02-11T14:51:24.487Z,100885.83
2023-02-11T14:55:54.629Z,100874.13
2023-02-11T14:59:49.625Z,100871.91
2023-02-11T15:03:26.189Z,100867.63
2023-02-11T15:07:25.512Z,100864.73
2023-02-11T15:11:30.908Z,100859.59
2023-02-11T15:15:23.275Z,100845.67
2023-02-11T15:19:15.903Z,100838.99
2023-02-11T15:23:05.446Z,100842.95
2023-02-11T15:31:01.076Z,100843.65
2023-02-11T15:34:50.858Z,100843.48
2023-02-11T15:38:03.103Z,100846.42
2023-02-11T15:46:30.178Z,100833.71
2023-02-11T15:50:19.324Z,100829.09
2023-02-11T15:59:12.379Z,100828.94
2023-02-11T16:03:02.019Z,100833.61
2023-02-11T16:11:45.645Z,100817.43
2023-02-11T16:42:33.934Z,100777.05
2023-02-11T16:46:26.585Z,100772.10
2023-02-11T17:08:45.984Z,100740.05
2023-02-11T17:12:38.647Z,100736.63
2023-02-11T17:16:28.843Z,100736.80
2023-02-11T17:20:18.641Z,100732.68
2023-02-11T17:56:45.953Z,100689.32
2023-02-11T18:00:18.838Z,100684.15
2023-02-11T18:08:16.372Z,100679.28
2023-02-11T18:12:11.187Z,100674.45
2023-02-11T18:16:00.503Z,100671.01
2023-02-11T18:19:49.780Z,100665.14
2023-02-11T18:23:41.407Z,100665.14
2023-02-11T18:27:36.598Z,100664.96
2023-02-11T18:31:26.160Z,100655.98
2023-02-11T18:35:16.310Z,100656.31
2023-02-11T18:44:10.252Z,100650.07
2023-02-11T18:48:00.237Z,100652.66
2023-02-11T18:52:13.304Z,100648.88
2023-02-11T18:56:03.228Z,100645.77
2023-02-11T18:59:59.179Z,100641.48
2023-02-11T19:03:48.590Z,100634.94
2023-02-11T19:16:34.486Z,100633.23
2023-02-11T19:20:51.962Z,100633.56
2023-02-11T19:24:41.635Z,100624.64
2023-02-11T19:28:31.228Z,100619.99
2023-02-11T19:32:21.079Z,100620.52
2023-02-11T19:36:10.453Z,100617.41
2023-02-11T19:40:00.039Z,100616.57
2023-02-11T19:52:45.705Z,100609.64
2023-02-11T20:01:17.528Z,100597.90
2023-02-11T20:04:42.583Z,100592.39
2023-02-11T20:17:49.096Z,100579.87
2023-02-11T20:21:11.636Z,100580.95
2023-02-11T20:24:39.758Z,100578.91
2023-02-11T20:27:32.446Z,100581.32
2023-02-11T20:30:02.177Z,100577.54
2023-02-11T20:32:38.329Z,100568.77
2023-02-11T20:35:08.533Z,100566.87
2023-02-11T20:37:38.930Z,100560.66
2023-02-11T20:40:09.296Z,100560.48
2023-02-11T20:44:14.714Z,100558.08
2023-02-11T20:47:55.347Z,100558.61
2023-02-11T20:51:44.590Z,100556.93
2023-02-11T20:55:37.205Z,100557.79
2023-02-11T20:59:43.249Z,100557.06
2023-02-11T21:03:34.832Z,100549.80
2023-02-11T21:07:24.705Z,100547.73
2023-02-11T21:11:03.056Z,100549.08
2023-02-11T21:14:55.004Z,100549.77
2023-02-11T21:23:23.170Z,100539.84
2023-02-11T21:27:00.950Z,100537.27
2023-02-11T21:30:44.018Z,100537.10
2023-02-11T21:34:32.263Z,100539.31
2023-02-11T21:38:41.314Z,100533.63
2023-02-11T21:46:51.679Z,100525.75
2023-02-11T21:50:40.974Z,100520.09
2023-02-11T21:54:23.730Z,100521.83
2023-02-11T21:58:13.456Z,100519.05
2023-02-11T22:02:09.008Z,100515.96
2023-02-11T22:06:00.591Z,100522.17
2023-02-11T22:19:13.602Z,100508.06
2023-02-11T22:23:05.759Z,100502.39
2023-02-11T22:44:56.879Z,100508.11
2023-02-11T23:02:18.209Z,100509.80
2023-02-11T23:09:45.442Z,100503.25
2023-02-11T23:37:40.840Z,100511.67
2023-02-11T23:50:43.954Z,100511.30
2023-02-11T23:59:34.444Z,100517.82
